createdAt,value
2018-01-10T00:01:12.758Z,41.88
2018-01-10T00:03:41.404Z,38.47
2018-01-10T00:06:10.078Z,39.78
2018-01-10T00:08:38.937Z,28.10
2018-01-10T00:11:07.531Z,38.30
2018-01-10T00:13:36.129Z,28.75
2018-01-10T00:16:04.796Z,29.77
2018-01-10T00:18:33.526Z,31.17
2018-01-10T00:21:02.157Z,32.97
2018-01-10T00:23:30.805Z,31.33
2018-01-10T00:25:59.392Z,35.80
2018-01-10T00:28:28.014Z,35.28
2018-01-10T00:30:56.623Z,36.45
2018-01-10T00:33:25.267Z,30.02
2018-01-10T00:35:53.919Z,29.50
2018-01-10T00:38:22.539Z,33.65
2018-01-10T00:40:51.149Z,24.30
2018-01-10T00:43:19.757Z,29.35
2018-01-10T00:45:48.357Z,27.95
2018-01-10T00:48:16.966Z,28.38
2018-01-10T00:50:45.585Z,28.73
2018-01-10T00:53:14.189Z,27.17
2018-01-10T00:55:42.785Z,25.95
2018-01-10T00:58:11.389Z,27.60
2018-01-10T01:00:40.135Z,27.83
2018-01-10T01:03:08.720Z,29.65
2018-01-10T01:05:38.308Z,26.52
2018-01-10T01:08:06.946Z,24.48
2018-01-10T01:10:35.539Z,32.10
2018-01-10T01:13:04.169Z,30.58
2018-01-10T01:15:32.765Z,38.22
2018-01-10T01:18:02.000Z,32.47
2018-01-10T01:20:30.596Z,32.03
2018-01-10T01:22:59.934Z,36.22
2018-01-10T01:25:28.545Z,34.63
2018-01-10T01:27:57.174Z,32.20
2018-01-10T01:30:25.810Z,31.55
2018-01-10T01:32:54.441Z,35.67
2018-01-10T01:35:23.072Z,30.25
2018-01-10T01:37:51.693Z,29.33
2018-01-10T01:40:20.290Z,30.42
2018-01-10T01:42:48.939Z,23.48
2018-01-10T01:45:17.553Z,27.55
2018-01-10T01:47:46.167Z,31.35
2018-01-10T01:50:14.843Z,26.52
2018-01-10T01:52:43.460Z,31.25
2018-01-10T01:55:12.039Z,32.85
2018-01-10T01:57:40.743Z,33.10
2018-01-10T02:00:09.350Z,32.63
2018-01-10T02:02:37.949Z,28.35
2018-01-10T02:05:06.565Z,23.08
2018-01-10T02:07:35.168Z,30.95
2018-01-10T02:10:03.781Z,28.60
2018-01-10T02:12:32.396Z,21.87
2018-01-10T02:15:01.006Z,32.72
2018-01-10T02:17:29.300Z,25.30
2018-01-10T02:19:57.641Z,33.00
2018-01-10T02:22:26.264Z,21.05
2018-01-10T02:24:54.721Z,22.05
2018-01-10T02:27:23.325Z,28.05
2018-01-10T02:29:51.933Z,22.48
2018-01-10T02:32:20.526Z,24.67
2018-01-10T02:34:49.148Z,22.80
2018-01-10T02:37:17.752Z,17.92
2018-01-10T02:39:46.385Z,20.33
2018-01-10T02:42:26.982Z,18.20
2018-01-10T02:44:55.632Z,21.08
2018-01-10T02:47:24.232Z,16.35
2018-01-10T02:49:52.814Z,18.52
2018-01-10T02:52:21.418Z,20.20
2018-01-10T02:54:50.038Z,16.70
2018-01-10T02:57:18.662Z,18.62
2018-01-10T02:59:47.273Z,17.52
2018-01-10T03:02:15.871Z,19.08
2018-01-10T03:04:44.551Z,16.65
2018-01-10T03:07:13.162Z,18.75
2018-01-10T03:09:41.753Z,19.33
2018-01-10T03:12:10.386Z,18.20
2018-01-10T03:14:39.001Z,20.17
2018-01-10T03:17:07.585Z,25.15
2018-01-10T03:19:36.204Z,17.98
2018-01-10T03:22:04.835Z,18.92
2018-01-10T03:24:33.497Z,17.77
2018-01-10T03:27:02.096Z,16.52
2018-01-10T03:29:30.721Z,18.02
2018-01-10T03:31:59.397Z,17.05
2018-01-10T03:34:27.994Z,18.33
2018-01-10T03:36:56.592Z,17.60
2018-01-10T03:39:25.208Z,15.50
2018-01-10T03:41:53.813Z,19.27
2018-01-10T03:44:22.161Z,19.00
2018-01-10T03:46:50.464Z,20.30
2018-01-10T03:49:18.793Z,21.87
2018-01-10T03:51:47.102Z,28.60
2018-01-10T03:54:15.485Z,31.87
2018-01-10T03:56:43.797Z,29.73
2018-01-10T03:59:12.083Z,30.00
2018-01-10T04:01:40.377Z,30.88
2018-01-10T04:04:08.706Z,30.37
2018-01-10T04:06:37.009Z,27.37
2018-01-10T04:09:05.340Z,30.27
2018-01-10T04:11:33.666Z,25.67
2018-01-10T04:14:02.289Z,33.38
2018-01-10T04:16:30.899Z,25.40
2018-01-10T04:18:59.550Z,29.12
2018-01-10T04:21:28.166Z,24.35
2018-01-10T04:23:56.764Z,23.15
2018-01-10T04:26:25.418Z,22.85
2018-01-10T04:28:54.527Z,20.00
2018-01-10T04:31:23.112Z,21.40
2018-01-10T04:33:51.725Z,21.90
2018-01-10T04:36:21.221Z,23.67
2018-01-10T04:38:49.808Z,21.17
2018-01-10T04:41:18.519Z,21.23
2018-01-10T04:43:47.146Z,17.80
2018-01-10T04:46:15.725Z,21.20
2018-01-10T04:48:44.354Z,18.77
2018-01-10T04:51:12.974Z,16.90
2018-01-10T04:53:41.643Z,16.35
2018-01-10T04:56:10.266Z,17.20
2018-01-10T04:58:38.978Z,16.73
2018-01-10T05:01:07.601Z,13.90
2018-01-10T05:03:36.183Z,15.65
2018-01-10T05:06:05.678Z,14.25
2018-01-10T05:08:34.299Z,13.80
2018-01-10T05:11:02.885Z,13.20
2018-01-10T05:13:31.494Z,13.50
2018-01-10T05:16:00.135Z,15.43
2018-01-10T05:18:28.734Z,14.27
2018-01-10T05:20:57.333Z,13.82
2018-01-10T05:23:25.949Z,17.30
2018-01-10T05:25:54.622Z,15.23
2018-01-10T05:28:23.211Z,15.27
2018-01-10T05:30:51.797Z,14.50
2018-01-10T05:33:20.431Z,13.75
2018-01-10T05:35:49.013Z,15.15
2018-01-10T05:38:17.596Z,16.70
2018-01-10T05:40:46.219Z,20.60
2018-01-10T05:43:14.820Z,22.70
2018-01-10T05:45:43.637Z,23.52
2018-01-10T05:48:12.496Z,17.00
2018-01-10T05:50:41.079Z,20.80
2018-01-10T05:53:09.916Z,27.08
2018-01-10T05:55:38.524Z,21.65
2018-01-10T05:58:07.147Z,17.17
2018-01-10T06:00:35.749Z,19.08
2018-01-10T06:03:04.364Z,19.55
2018-01-10T06:05:32.957Z,16.37
2018-01-10T06:08:01.567Z,17.73
2018-01-10T06:10:30.189Z,17.12
2018-01-10T06:12:58.879Z,16.23
2018-01-10T06:15:27.487Z,15.48
2018-01-10T06:17:56.110Z,13.77
2018-01-10T06:20:24.705Z,18.62
2018-01-10T06:22:54.773Z,16.90
2018-01-10T06:25:23.357Z,18.37
2018-01-10T06:27:52.069Z,17.30
2018-01-10T06:30:20.678Z,16.40
2018-01-10T06:32:49.285Z,15.80
2018-01-10T06:35:17.927Z,15.23
2018-01-10T06:37:46.588Z,18.45
2018-01-10T06:40:15.190Z,17.35
2018-01-10T06:42:43.794Z,17.10
2018-01-10T06:45:12.392Z,16.45
2018-01-10T06:47:40.997Z,15.50
2018-01-10T06:50:09.627Z,16.62
2018-01-10T06:52:38.230Z,13.50
2018-01-10T06:55:06.828Z,18.42
2018-01-10T06:57:35.482Z,15.30
2018-01-10T07:00:04.189Z,16.80
2018-01-10T07:02:32.806Z,16.70
2018-01-10T07:05:01.422Z,15.15
2018-01-10T07:07:30.029Z,18.98
2018-01-10T07:09:58.602Z,15.73
2018-01-10T07:12:27.219Z,15.32
2018-01-10T07:14:55.834Z,14.90
2018-01-10T07:17:24.430Z,13.55
2018-01-10T07:19:53.045Z,15.98
2018-01-10T07:22:21.627Z,16.58
2018-01-10T07:24:50.233Z,18.62
2018-01-10T07:27:18.830Z,16.65
2018-01-10T07:29:47.458Z,16.37
2018-01-10T07:32:16.043Z,16.87
2018-01-10T07:34:44.657Z,17.83
2018-01-10T07:37:13.249Z,17.42
2018-01-10T07:39:41.850Z,22.42
2018-01-10T07:42:10.515Z,18.75
2018-01-10T07:44:39.113Z,18.05
2018-01-10T07:47:07.723Z,15.25
2018-01-10T07:49:37.154Z,16.05
2018-01-10T07:52:05.776Z,17.67
2018-01-10T07:54:34.388Z,18.52
2018-01-10T07:57:04.088Z,19.27
2018-01-10T07:59:32.897Z,17.90
2018-01-10T08:02:01.497Z,19.20
2018-01-10T08:04:30.157Z,18.33
2018-01-10T08:06:58.749Z,24.25
2018-01-10T08:09:27.344Z,45.22
2018-01-10T08:11:55.954Z,22.33
2018-01-10T08:14:24.535Z,17.58
2018-01-10T08:16:53.200Z,17.90
2018-01-10T08:19:21.835Z,16.65
2018-01-10T08:21:50.473Z,17.90
2018-01-10T08:24:19.096Z,15.82
2018-01-10T08:26:47.714Z,15.57
2018-01-10T08:29:16.301Z,16.23
2018-01-10T08:31:45.009Z,14.65
2018-01-10T08:34:13.635Z,13.62
2018-01-10T08:36:42.276Z,14.27
2018-01-10T08:39:10.869Z,16.65
2018-01-10T08:41:39.492Z,18.25
2018-01-10T08:44:08.114Z,19.33
2018-01-10T08:46:36.701Z,18.05
2018-01-10T08:49:05.305Z,21.67
2018-01-10T08:51:33.920Z,17.02
2018-01-10T08:54:02.513Z,24.52
2018-01-10T08:56:31.140Z,17.60
2018-01-10T08:58:59.741Z,18.40
2018-01-10T09:01:28.328Z,18.40
2018-01-10T09:03:56.954Z,19.25
2018-01-10T09:06:25.567Z,22.02
2018-01-10T09:08:54.156Z,23.15
2018-01-10T09:11:22.807Z,21.25
2018-01-10T09:13:51.393Z,17.55
2018-01-10T09:16:20.001Z,19.30
2018-01-10T09:18:48.620Z,19.67
2018-01-10T09:21:17.231Z,19.52
2018-01-10T09:23:45.824Z,16.42
2018-01-10T09:26:14.446Z,22.87
2018-01-10T09:28:43.046Z,22.02
2018-01-10T09:31:11.680Z,17.12
2018-01-10T09:33:40.322Z,21.85
2018-01-10T09:36:09.544Z,21.02
2018-01-10T09:38:38.138Z,20.20
2018-01-10T09:41:06.733Z,19.90
2018-01-10T09:43:35.113Z,20.40
2018-01-10T09:46:03.753Z,19.48
2018-01-10T09:48:32.456Z,20.85
2018-01-10T09:51:01.054Z,19.15
2018-01-10T09:53:29.662Z,20.73
2018-01-10T09:55:58.268Z,23.48
2018-01-10T09:58:26.887Z,20.52
2018-01-10T10:00:55.502Z,31.05
2018-01-10T10:03:24.109Z,27.17
2018-01-10T10:05:52.737Z,32.35
2018-01-10T10:08:21.380Z,25.12
2018-01-10T10:10:49.972Z,26.70
2018-01-10T10:13:18.709Z,32.85
2018-01-10T10:15:47.340Z,28.58
2018-01-10T10:18:15.973Z,26.70
2018-01-10T10:20:44.741Z,28.73
2018-01-10T10:23:13.333Z,23.35
2018-01-10T10:25:42.079Z,22.90
2018-01-10T10:28:10.690Z,19.25
2018-01-10T10:30:39.320Z,23.42
2018-01-10T10:33:07.952Z,17.00
2018-01-10T10:35:36.585Z,18.60
2018-01-10T10:38:05.200Z,16.55
2018-01-10T10:40:33.520Z,20.23
2018-01-10T10:43:01.850Z,22.67
2018-01-10T10:45:30.164Z,19.62
2018-01-10T10:47:58.471Z,18.17
2018-01-10T10:50:26.776Z,13.50
2018-01-10T10:52:55.111Z,18.00
2018-01-10T10:55:23.408Z,15.27
2018-01-10T10:57:51.707Z,14.60
2018-01-10T11:00:20.068Z,13.80
2018-01-10T11:02:48.357Z,13.27
2018-01-10T11:05:16.691Z,15.67
2018-01-10T11:07:45.013Z,17.65
2018-01-10T11:10:13.320Z,14.77
2018-01-10T11:12:41.638Z,15.10
2018-01-10T11:15:09.961Z,13.67
2018-01-10T11:17:38.283Z,13.23
2018-01-10T11:20:06.660Z,13.23
2018-01-10T11:22:35.001Z,15.00
2018-01-10T11:25:04.195Z,15.07
2018-01-10T11:27:32.508Z,15.85
2018-01-10T11:30:00.824Z,15.20
2018-01-10T11:32:29.265Z,15.90
2018-01-10T11:34:57.569Z,14.52
2018-01-10T11:37:25.851Z,15.13
2018-01-10T11:39:54.278Z,15.93
2018-01-10T11:42:22.598Z,17.33
2018-01-10T11:44:51.724Z,15.00
2018-01-10T11:47:20.115Z,16.77
2018-01-10T11:49:48.502Z,16.00
2018-01-10T11:52:16.798Z,15.23
2018-01-10T11:54:45.143Z,14.87
2018-01-10T11:57:13.457Z,14.73
2018-01-10T11:59:41.779Z,14.50
2018-01-10T12:02:10.324Z,15.73
2018-01-10T12:04:38.622Z,15.17
2018-01-10T12:07:06.949Z,13.45
2018-01-10T12:09:35.240Z,14.38
2018-01-10T12:12:03.557Z,14.60
2018-01-10T12:14:31.964Z,12.70
2018-01-10T12:17:00.265Z,12.00
2018-01-10T12:19:28.594Z,10.30
2018-01-10T12:21:56.897Z,12.55
2018-01-10T12:24:25.188Z,11.00
2018-01-10T12:26:53.497Z,10.10
2018-01-10T12:29:21.822Z,10.88
2018-01-10T12:31:50.197Z,12.10
2018-01-10T12:34:19.048Z,11.77
2018-01-10T12:36:47.352Z,12.25
2018-01-10T12:39:15.689Z,12.43
2018-01-10T12:41:44.058Z,11.68
2018-01-10T12:44:12.353Z,12.93
2018-01-10T12:46:40.748Z,14.52
2018-01-10T12:49:09.049Z,13.88
2018-01-10T12:51:37.411Z,13.95
2018-01-10T12:54:05.704Z,13.43
2018-01-10T12:56:34.009Z,13.30
2018-01-10T12:59:02.409Z,15.00
2018-01-10T13:01:30.731Z,12.82
2018-01-10T13:03:59.050Z,13.52
2018-01-10T13:06:27.388Z,13.90
2018-01-10T13:08:55.796Z,14.52
2018-01-10T13:11:24.077Z,13.68
2018-01-10T13:13:52.402Z,13.15
2018-01-10T13:16:20.701Z,15.30
2018-01-10T13:18:49.067Z,14.35
2018-01-10T13:21:17.459Z,13.75
2018-01-10T13:23:45.807Z,15.25
2018-01-10T13:26:14.147Z,15.07
2018-01-10T13:28:42.438Z,15.85
2018-01-10T13:31:10.792Z,14.32
2018-01-10T13:33:39.143Z,15.63
2018-01-10T13:36:07.475Z,16.15
2018-01-10T13:38:35.767Z,16.12
2018-01-10T13:41:04.320Z,14.25
2018-01-10T13:43:32.621Z,14.82
2018-01-10T13:46:01.004Z,15.95
2018-01-10T13:48:29.365Z,14.82
2018-01-10T13:50:57.660Z,14.38
2018-01-10T13:53:25.977Z,14.90
2018-01-10T13:55:54.306Z,14.13
2018-01-10T13:58:22.604Z,13.60
2018-01-10T14:00:50.927Z,15.10
2018-01-10T14:03:19.273Z,14.65
2018-01-10T14:05:47.563Z,14.93
2018-01-10T14:08:16.146Z,13.57
2018-01-10T14:10:44.464Z,12.63
2018-01-10T14:13:12.791Z,15.00
2018-01-10T14:15:41.134Z,14.02
2018-01-10T14:18:09.456Z,15.00
2018-01-10T14:20:37.775Z,16.13
2018-01-10T14:23:06.125Z,17.27
2018-01-10T14:25:34.469Z,14.93
2018-01-10T14:28:02.772Z,15.82
2018-01-10T14:30:31.080Z,14.77
2018-01-10T14:33:00.336Z,15.98
2018-01-10T14:35:28.647Z,17.40
2018-01-10T14:37:56.965Z,14.70
2018-01-10T14:40:25.387Z,16.10
2018-01-10T14:42:53.968Z,15.30
2018-01-10T14:45:22.597Z,17.37
2018-01-10T14:47:51.218Z,15.57
2018-01-10T14:50:19.553Z,16.42
2018-01-10T14:52:47.945Z,14.63
2018-01-10T14:55:16.284Z,17.10
2018-01-10T14:57:44.586Z,15.40
2018-01-10T15:00:13.028Z,15.25
2018-01-10T15:02:41.314Z,16.17
2018-01-10T15:05:09.644Z,15.68
2018-01-10T15:07:38.274Z,14.15
2018-01-10T15:10:06.836Z,13.55
2018-01-10T15:12:35.128Z,12.93
2018-01-10T15:15:03.756Z,13.82
2018-01-10T15:17:32.349Z,14.70
2018-01-10T15:20:00.992Z,13.50
2018-01-10T15:22:29.607Z,14.27
2018-01-10T15:24:58.197Z,14.87
2018-01-10T15:27:26.831Z,14.18
2018-01-10T15:29:55.468Z,12.02
2018-01-10T15:32:24.057Z,14.35
2018-01-10T15:34:52.700Z,14.48
2018-01-10T15:37:21.314Z,14.80
2018-01-10T15:39:49.929Z,11.95
2018-01-10T15:42:18.554Z,15.05
2018-01-10T15:44:47.149Z,14.75
2018-01-10T15:47:15.743Z,13.88
2018-01-10T15:49:45.321Z,13.75
2018-01-10T15:52:13.904Z,12.57
2018-01-10T15:54:42.534Z,12.73
2018-01-10T15:57:11.149Z,14.07
2018-01-10T15:59:39.753Z,13.05
2018-01-10T16:02:08.432Z,14.57
2018-01-10T16:04:37.981Z,13.35
2018-01-10T16:07:07.386Z,14.13
2018-01-10T16:09:36.324Z,14.73
2018-01-10T16:12:05.842Z,15.02
2018-01-10T16:14:34.453Z,13.10
2018-01-10T16:17:03.070Z,15.27
2018-01-10T16:19:31.929Z,12.93
2018-01-10T16:22:00.558Z,13.18
2018-01-10T16:24:29.184Z,13.60
2018-01-10T16:26:57.792Z,14.98
2018-01-10T16:29:26.434Z,15.32
2018-01-10T16:31:55.037Z,15.75
2018-01-10T16:34:23.658Z,15.20
2018-01-10T16:36:52.289Z,18.33
2018-01-10T16:39:20.917Z,16.48
2018-01-10T16:41:49.610Z,17.27
2018-01-10T16:44:18.204Z,16.35
2018-01-10T16:46:46.834Z,17.00
2018-01-10T16:49:15.447Z,16.67
2018-01-10T16:51:44.063Z,17.23
2018-01-10T16:54:12.696Z,17.05
2018-01-10T16:56:41.370Z,17.75
2018-01-10T16:59:09.685Z,19.45
2018-01-10T17:01:37.988Z,17.73
2018-01-10T17:04:06.622Z,21.35
2018-01-10T17:06:36.173Z,23.92
2018-01-10T17:09:04.793Z,16.77
2018-01-10T17:11:33.626Z,17.45
2018-01-10T17:14:02.253Z,18.40
2018-01-10T17:16:30.876Z,18.80
2018-01-10T17:18:59.560Z,18.77
2018-01-10T17:21:28.173Z,16.52
2018-01-10T17:23:56.771Z,17.00
2018-01-10T17:26:25.429Z,16.65
2018-01-10T17:28:54.009Z,16.73
2018-01-10T17:31:22.633Z,17.98
2018-01-10T17:33:51.255Z,16.80
2018-01-10T17:36:19.905Z,16.92
2018-01-10T17:38:48.521Z,17.87
2018-01-10T17:41:17.141Z,19.80
2018-01-10T17:43:45.754Z,16.05
2018-01-10T17:46:14.366Z,18.15
2018-01-10T17:48:43.014Z,16.35
2018-01-10T17:51:11.445Z,19.52
2018-01-10T17:53:40.061Z,17.85
2018-01-10T17:56:08.678Z,18.67
2018-01-10T17:58:37.269Z,17.60
2018-01-10T18:01:05.905Z,23.95
2018-01-10T18:03:35.191Z,20.15
2018-01-10T18:06:03.869Z,19.25
2018-01-10T18:08:32.500Z,17.70
2018-01-10T18:11:01.116Z,20.40
2018-01-10T18:13:29.834Z,19.55
2018-01-10T18:15:58.469Z,23.67
2018-01-10T18:18:27.713Z,24.70
2018-01-10T18:20:56.341Z,25.98
2018-01-10T18:23:25.965Z,23.90
2018-01-10T18:25:54.269Z,21.12
2018-01-10T18:28:22.886Z,18.80
2018-01-10T18:30:51.562Z,21.00
2018-01-10T18:33:20.152Z,22.45
2018-01-10T18:35:48.811Z,19.50
2018-01-10T18:38:17.476Z,22.80
2018-01-10T18:40:46.088Z,21.65
2018-01-10T18:43:15.626Z,25.12
2018-01-10T18:45:44.498Z,22.25
2018-01-10T18:48:13.125Z,21.12
2018-01-10T18:50:41.734Z,24.87
2018-01-10T18:53:10.394Z,26.87
2018-01-10T18:55:39.045Z,22.62
2018-01-10T18:58:08.578Z,24.98
2018-01-10T19:00:37.209Z,24.00
2018-01-10T19:03:05.799Z,28.05
2018-01-10T19:05:34.485Z,23.50
2018-01-10T19:08:03.096Z,24.20
2018-01-10T19:10:31.800Z,24.33
2018-01-10T19:13:00.422Z,24.02
2018-01-10T19:15:29.038Z,23.23
2018-01-10T19:17:57.680Z,23.45
2018-01-10T19:20:26.949Z,23.10
2018-01-10T19:22:55.572Z,28.23
2018-01-10T19:25:24.203Z,25.73
2018-01-10T19:27:52.852Z,24.23
2018-01-10T19:30:21.480Z,21.25
2018-01-10T19:32:51.759Z,24.90
2018-01-10T19:35:20.388Z,26.42
2018-01-10T19:37:49.032Z,25.48
2018-01-10T19:40:17.626Z,25.83
2018-01-10T19:42:46.357Z,22.58
2018-01-10T19:45:15.024Z,24.50
2018-01-10T19:47:43.646Z,26.58
2018-01-10T19:50:12.269Z,24.90
2018-01-10T19:52:41.154Z,31.87
2018-01-10T19:55:09.763Z,23.70
2018-01-10T19:57:38.385Z,29.35
2018-01-10T20:00:06.984Z,23.70
2018-01-10T20:02:35.595Z,29.02
2018-01-10T20:05:04.253Z,28.00
2018-01-10T20:07:32.890Z,27.00
2018-01-10T20:10:01.521Z,32.47
2018-01-10T20:12:30.109Z,29.35
2018-01-10T20:14:58.699Z,31.17
2018-01-10T20:30:14.678Z,31.23
2018-01-10T20:32:43.301Z,32.08
2018-01-10T20:35:11.911Z,29.95
2018-01-10T20:37:40.634Z,33.70
2018-01-10T20:40:09.235Z,32.15
2018-01-10T20:42:37.870Z,29.95
2018-01-10T20:45:06.484Z,31.35
2018-01-10T20:47:35.078Z,29.70
2018-01-10T20:50:03.699Z,31.75
2018-01-10T20:52:32.349Z,29.30
2018-01-10T20:55:00.983Z,30.92
2018-01-10T20:57:29.617Z,28.30
2018-01-10T20:59:59.017Z,32.80
2018-01-10T21:02:27.650Z,35.38
2018-01-10T21:04:56.288Z,30.00
2018-01-10T21:07:24.918Z,31.05
2018-01-10T21:09:53.599Z,34.10
2018-01-10T21:12:22.214Z,31.15
2018-01-10T21:14:50.827Z,32.00
2018-01-10T21:17:19.458Z,34.50
2018-01-10T21:19:48.120Z,34.63
2018-01-10T21:22:16.717Z,34.38
2018-01-10T21:24:45.349Z,31.85
2018-01-10T21:27:14.001Z,32.60
2018-01-10T21:29:42.665Z,35.15
2018-01-10T21:32:11.297Z,35.17
2018-01-10T21:34:39.946Z,29.55
2018-01-10T21:37:08.551Z,36.33
2018-01-10T21:39:37.179Z,34.70
2018-01-10T21:42:05.829Z,31.02
2018-01-10T21:44:34.428Z,33.53
2018-01-10T21:47:03.056Z,29.90
2018-01-10T21:49:31.725Z,34.00
2018-01-10T21:52:00.340Z,30.90
2018-01-10T21:54:28.924Z,33.53
2018-01-10T21:56:57.556Z,37.97
2018-01-10T21:59:26.162Z,32.67
2018-01-10T22:01:54.815Z,36.10
2018-01-10T22:04:23.452Z,29.73
2018-01-10T22:06:52.072Z,31.23
2018-01-10T22:09:20.704Z,31.27
2018-01-10T22:11:49.368Z,29.70
2018-01-10T22:14:18.010Z,31.95
2018-01-10T22:16:46.643Z,28.17
2018-01-10T22:19:15.277Z,28.23
2018-01-10T22:21:43.869Z,31.95
2018-01-10T22:24:13.308Z,36.60
2018-01-10T22:26:41.938Z,33.60
2018-01-10T22:29:10.568Z,33.38
2018-01-10T22:31:39.192Z,32.75
2018-01-10T22:34:07.809Z,32.45
2018-01-10T22:36:36.425Z,34.13
2018-01-10T22:39:05.085Z,33.67
2018-01-10T22:41:33.711Z,40.70
2018-01-10T22:44:02.314Z,38.95
2018-01-10T22:46:30.949Z,43.55
2018-01-10T22:48:59.538Z,38.60
2018-01-10T22:51:28.184Z,37.38
2018-01-10T22:53:56.822Z,39.53
2018-01-10T22:56:25.418Z,41.63
2018-01-10T22:58:54.036Z,40.08
2018-01-10T23:01:22.669Z,38.15
2018-01-10T23:03:51.324Z,39.88
2018-01-10T23:06:19.948Z,44.92
2018-01-10T23:08:48.601Z,41.35
2018-01-10T23:11:17.227Z,41.63
2018-01-10T23:13:45.826Z,33.95
2018-01-10T23:16:14.464Z,37.13
2018-01-10T23:18:43.106Z,41.85
2018-01-10T23:21:11.711Z,38.72
2018-01-10T23:23:40.323Z,41.45
2018-01-10T23:26:08.954Z,38.65
2018-01-10T23:28:37.567Z,36.22
2018-01-10T23:31:06.150Z,35.10
2018-01-10T23:33:34.525Z,37.08
2018-01-10T23:36:02.861Z,36.40
2018-01-10T23:38:31.411Z,31.15
2018-01-10T23:41:00.048Z,34.55
2018-01-10T23:43:28.673Z,32.25
2018-01-10T23:45:57.284Z,39.97
2018-01-10T23:48:26.001Z,28.23
2018-01-10T23:50:55.674Z,27.70
2018-01-10T23:53:24.264Z,28.70
2018-01-10T23:55:53.599Z,33.00
2018-01-10T23:58:22.204Z,24.80
